createdAt,value
2018-09-20T00:00:23.491Z,3.60
2018-09-20T00:02:53.738Z,3.92
2018-09-20T00:05:24.983Z,4.10
2018-09-20T00:07:55.184Z,3.90
2018-09-20T00:10:25.200Z,3.15
2018-09-20T00:12:55.243Z,4.58
2018-09-20T00:15:25.251Z,3.37
2018-09-20T00:17:56.752Z,3.47
2018-09-20T00:20:28.065Z,3.52
2018-09-20T00:22:58.845Z,2.67
2018-09-20T00:25:30.225Z,3.45
2018-09-20T00:28:02.503Z,3.00
2018-09-20T00:30:35.029Z,2.67
2018-09-20T00:33:07.258Z,3.75
2018-09-20T00:35:40.532Z,4.35
2018-09-20T00:38:10.445Z,4.10
2018-09-20T00:40:42.664Z,3.30
2018-09-20T00:43:13.883Z,2.75
2018-09-20T00:45:43.698Z,3.27
2018-09-20T00:48:15.516Z,3.02
2018-09-20T00:50:46.252Z,4.10
2018-09-20T00:53:16.700Z,3.20
2018-09-20T00:55:47.331Z,2.72
2018-09-20T00:58:17.423Z,2.50
2018-09-20T01:00:49.789Z,4.40
2018-09-20T01:03:21.681Z,4.65
2018-09-20T01:05:51.774Z,3.72
2018-09-20T01:08:21.604Z,3.67
2018-09-20T01:10:51.695Z,3.42
2018-09-20T01:13:21.546Z,4.87
2018-09-20T01:15:53.445Z,2.85
2018-09-20T01:18:23.820Z,3.72
2018-09-20T01:20:55.370Z,3.12
2018-09-20T01:23:27.681Z,4.42
2018-09-20T01:26:01.138Z,4.45
2018-09-20T01:28:30.958Z,3.35
2018-09-20T01:31:03.274Z,3.85
2018-09-20T01:33:35.330Z,3.20
2018-09-20T01:36:07.105Z,3.52
2018-09-20T01:38:40.112Z,4.10
2018-09-20T01:41:10.290Z,3.80
2018-09-20T01:43:41.056Z,4.70
2018-09-20T01:46:11.021Z,3.90
2018-09-20T01:48:42.485Z,4.70
2018-09-20T01:51:13.701Z,4.30
2018-09-20T01:53:43.497Z,4.12
2018-09-20T01:56:16.073Z,4.20
2018-09-20T01:58:47.373Z,4.67
2018-09-20T02:01:17.384Z,4.60
2018-09-20T02:03:47.319Z,4.97
2018-09-20T02:06:17.467Z,4.65
2018-09-20T02:08:48.271Z,4.90
2018-09-20T02:11:18.125Z,3.52
2018-09-20T02:13:47.989Z,4.45
2018-09-20T02:16:21.247Z,5.05
2018-09-20T02:18:53.795Z,4.70
2018-09-20T02:21:23.643Z,3.98
2018-09-20T02:23:53.974Z,4.00
2018-09-20T02:26:25.209Z,4.70
2018-09-20T02:28:59.338Z,5.33
2018-09-20T02:31:32.110Z,4.00
2018-09-20T02:34:04.075Z,4.75
2018-09-20T02:36:36.166Z,4.47
2018-09-20T02:39:10.252Z,5.10
2018-09-20T02:41:40.266Z,2.42
2018-09-20T02:44:10.186Z,6.42
2018-09-20T02:46:40.121Z,4.17
2018-09-20T02:49:10.119Z,3.35
2018-09-20T02:51:41.500Z,4.22
2018-09-20T02:54:13.051Z,4.78
2018-09-20T02:56:44.159Z,4.67
2018-09-20T02:59:14.826Z,2.85
2018-09-20T03:01:44.695Z,3.22
2018-09-20T03:04:14.516Z,4.72
2018-09-20T03:06:44.026Z,3.92
2018-09-20T03:09:14.119Z,3.70
2018-09-20T03:11:43.933Z,3.85
2018-09-20T03:14:13.771Z,3.60
2018-09-20T03:16:47.382Z,4.87
2018-09-20T03:19:17.695Z,5.15
2018-09-20T03:21:48.372Z,4.55
2018-09-20T03:24:20.482Z,4.47
2018-09-20T03:26:50.392Z,4.72
2018-09-20T03:29:22.980Z,4.95
2018-09-20T03:31:57.166Z,4.40
2018-09-20T03:34:30.022Z,4.92
2018-09-20T03:37:01.252Z,4.40
2018-09-20T03:39:31.241Z,4.75
2018-09-20T03:42:03.583Z,3.77
2018-09-20T03:44:35.218Z,5.05
2018-09-20T03:47:05.108Z,5.10
2018-09-20T03:49:38.511Z,5.30
2018-09-20T03:52:08.670Z,4.85
2018-09-20T03:54:42.021Z,4.20
2018-09-20T03:57:15.324Z,2.95
2018-09-20T03:59:45.580Z,4.92
2018-09-20T04:02:16.270Z,4.37
2018-09-20T04:04:47.566Z,5.62
2018-09-20T04:07:17.630Z,4.00
2018-09-20T04:09:48.970Z,4.72
2018-09-20T04:12:19.002Z,6.03
2018-09-20T04:14:49.728Z,5.55
2018-09-20T04:17:19.554Z,5.60
2018-09-20T04:19:52.957Z,5.55
2018-09-20T04:22:23.643Z,4.08
2018-09-20T04:24:57.863Z,5.50
2018-09-20T04:27:27.630Z,5.05
2018-09-20T04:30:01.031Z,2.65
2018-09-20T04:32:30.986Z,5.45
2018-09-20T04:35:04.926Z,5.20
2018-09-20T04:37:35.666Z,4.95
2018-09-20T04:40:07.073Z,5.37
2018-09-20T04:42:37.171Z,5.78
2018-09-20T04:45:08.335Z,5.87
2018-09-20T04:47:41.239Z,5.90
2018-09-20T04:50:14.386Z,5.95
2018-09-20T04:52:47.496Z,6.58
2018-09-20T04:55:18.562Z,6.12
2018-09-20T04:57:48.520Z,5.90
2018-09-20T05:00:21.341Z,5.80
2018-09-20T05:02:51.728Z,5.90
2018-09-20T05:05:22.490Z,6.08
2018-09-20T05:07:52.480Z,6.17
2018-09-20T05:10:23.704Z,5.53
2018-09-20T05:12:55.177Z,7.30
2018-09-20T05:15:26.691Z,7.72
2018-09-20T05:17:59.116Z,6.80
2018-09-20T05:20:29.370Z,6.72
2018-09-20T05:22:59.441Z,6.17
2018-09-20T05:25:30.342Z,4.10
2018-09-20T05:28:01.545Z,6.85
2018-09-20T05:30:31.582Z,6.90
2018-09-20T05:33:04.127Z,5.60
2018-09-20T05:35:36.402Z,5.83
2018-09-20T05:38:07.256Z,7.95
2018-09-20T05:40:38.851Z,7.37
2018-09-20T05:43:11.330Z,7.65
2018-09-20T05:45:41.727Z,7.67
2018-09-20T05:48:11.692Z,7.10
2018-09-20T05:50:48.159Z,5.72
2018-09-20T05:53:18.209Z,6.92
2018-09-20T05:55:48.401Z,6.20
2018-09-20T05:58:18.588Z,5.33
2018-09-20T06:00:48.554Z,3.65
2018-09-20T06:03:21.097Z,7.30
2018-09-20T06:05:51.998Z,8.38
2018-09-20T06:08:22.185Z,7.53
2018-09-20T06:10:52.438Z,5.62
2018-09-20T06:13:23.953Z,7.50
2018-09-20T06:15:54.154Z,5.30
2018-09-20T06:18:28.022Z,7.05
2018-09-20T06:20:58.554Z,5.72
2018-09-20T06:23:29.153Z,6.70
2018-09-20T06:26:02.590Z,7.67
2018-09-20T06:28:33.615Z,7.90
2018-09-20T06:31:07.098Z,5.53
2018-09-20T06:33:37.108Z,6.62
2018-09-20T06:36:07.657Z,9.28
2018-09-20T06:38:37.507Z,7.28
2018-09-20T06:41:07.704Z,5.10
2018-09-20T06:43:38.719Z,5.47
2018-09-20T06:46:08.700Z,6.37
2018-09-20T06:48:39.628Z,7.30
2018-09-20T06:51:09.950Z,6.58
2018-09-20T06:53:40.223Z,6.45
2018-09-20T06:56:10.644Z,7.70
2018-09-20T06:58:40.989Z,6.67
2018-09-20T07:01:14.266Z,7.25
2018-09-20T07:03:44.694Z,6.30
2018-09-20T07:06:15.807Z,4.97
2018-09-20T07:08:45.756Z,7.17
2018-09-20T07:12:59.409Z,5.00
2018-09-20T07:15:30.266Z,6.85
2018-09-20T07:18:00.459Z,7.17
2018-09-20T07:20:32.670Z,6.53
2018-09-20T07:24:47.198Z,2.62
2018-09-20T07:27:18.153Z,5.03
2018-09-20T07:29:49.379Z,5.15
2018-09-20T07:32:19.399Z,4.22
2018-09-20T07:34:49.613Z,4.75
2018-09-20T07:37:19.765Z,5.20
2018-09-20T07:39:50.087Z,5.47
2018-09-20T07:42:20.099Z,5.28
2018-09-20T07:44:50.172Z,4.83
2018-09-20T07:47:20.240Z,6.20
2018-09-20T07:49:50.399Z,5.55
2018-09-20T07:52:20.373Z,5.10
2018-09-20T07:54:50.487Z,5.37
2018-09-20T07:57:21.290Z,5.90
2018-09-20T07:59:51.303Z,4.25
2018-09-20T08:02:21.507Z,3.70
2018-09-20T08:04:58.819Z,4.78
2018-09-20T08:07:29.647Z,4.58
2018-09-20T08:09:59.577Z,6.05
2018-09-20T08:12:29.868Z,5.25
2018-09-20T08:14:59.675Z,4.00
2018-09-20T08:17:30.466Z,5.50
2018-09-20T08:20:00.702Z,4.22
2018-09-20T08:22:30.707Z,5.58
2018-09-20T08:25:01.034Z,4.00
2018-09-20T08:27:31.133Z,4.25
2018-09-20T08:30:01.131Z,4.85
2018-09-20T08:32:31.092Z,5.35
2018-09-20T08:35:01.878Z,4.90
2018-09-20T08:37:31.968Z,6.17
2018-09-20T08:40:01.961Z,5.22
2018-09-20T08:42:32.068Z,5.33
2018-09-20T08:45:02.104Z,4.37
2018-09-20T08:47:32.970Z,4.30
2018-09-20T08:50:03.299Z,4.03
2018-09-20T08:52:33.359Z,4.85
2018-09-20T08:55:03.678Z,4.22
2018-09-20T08:57:38.746Z,5.28
2018-09-20T09:00:09.046Z,6.33
2018-09-20T09:02:40.926Z,4.70
2018-09-20T09:05:11.347Z,4.00
2018-09-20T09:07:42.328Z,4.55
2018-09-20T09:10:15.968Z,5.92
2018-09-20T09:12:46.167Z,3.27
2018-09-20T09:15:16.436Z,4.58
2018-09-20T09:17:46.813Z,2.85
2018-09-20T09:20:17.804Z,2.83
2018-09-20T09:22:47.833Z,4.62
2018-09-20T09:25:19.815Z,4.45
2018-09-20T09:27:50.350Z,3.30
2018-09-20T09:30:21.693Z,4.30
2018-09-20T09:32:53.261Z,3.70
2018-09-20T09:35:24.077Z,3.92
2018-09-20T09:37:54.122Z,4.55
2018-09-20T09:40:24.147Z,3.77
2018-09-20T09:42:55.970Z,4.62
2018-09-20T09:48:18.659Z,3.90
2018-09-20T09:50:50.510Z,4.75
2018-09-20T09:53:23.045Z,4.90
2018-09-20T09:55:53.997Z,3.92
2018-09-20T09:58:24.962Z,4.00
2018-09-20T10:00:58.384Z,4.33
2018-09-20T10:03:28.976Z,3.25
2018-09-20T10:05:59.713Z,4.30
2018-09-20T10:08:30.158Z,3.77
2018-09-20T10:11:00.457Z,3.83
2018-09-20T10:13:31.232Z,4.67
2018-09-20T10:16:02.336Z,4.55
2018-09-20T10:18:32.963Z,3.62
2018-09-20T10:21:03.046Z,2.80
2018-09-20T10:23:34.457Z,3.15
2018-09-20T10:26:06.078Z,2.75
2018-09-20T10:28:39.663Z,2.95
2018-09-20T10:31:09.811Z,4.03
2018-09-20T10:33:40.859Z,2.80
2018-09-20T10:36:11.351Z,3.72
2018-09-20T10:38:41.200Z,3.17
2018-09-20T10:41:12.576Z,3.30
2018-09-20T10:43:43.518Z,4.08
2018-09-20T10:46:14.999Z,4.33
2018-09-20T10:48:47.419Z,3.40
2018-09-20T10:51:19.750Z,4.60
2018-09-20T10:53:51.656Z,4.15
2018-09-20T10:56:23.460Z,4.28
2018-09-20T10:58:56.451Z,3.75
2018-09-20T11:01:27.291Z,3.95
2018-09-20T11:03:57.308Z,3.42
2018-09-20T11:06:30.709Z,2.60
2018-09-20T11:09:00.890Z,4.25
2018-09-20T11:11:30.976Z,4.15
2018-09-20T11:14:01.084Z,3.02
2018-09-20T11:16:32.641Z,3.70
2018-09-20T11:19:09.501Z,4.50
2018-09-20T11:21:43.124Z,4.33
2018-09-20T11:24:16.692Z,3.45
2018-09-20T11:26:50.248Z,2.95
2018-09-20T11:29:22.939Z,4.85
2018-09-20T11:31:59.216Z,4.90
2018-09-20T11:34:34.260Z,4.33
2018-09-20T11:37:19.249Z,2.62
2018-09-20T11:39:52.291Z,3.90
2018-09-20T11:42:30.120Z,4.40
2018-09-20T11:45:05.310Z,2.60
2018-09-20T11:47:42.085Z,3.90
2018-09-20T11:50:14.874Z,3.47
2018-09-20T11:52:46.403Z,4.00
2018-09-20T11:55:19.466Z,2.62
2018-09-20T11:57:50.528Z,3.02
2018-09-20T12:00:23.756Z,2.47
2018-09-20T12:02:57.080Z,2.85
2018-09-20T12:05:29.372Z,3.02
2018-09-20T12:08:02.540Z,3.27
2018-09-20T12:10:35.014Z,2.45
2018-09-20T12:13:08.348Z,2.15
2018-09-20T12:15:39.579Z,1.87
2018-09-20T12:18:11.219Z,3.47
2018-09-20T12:20:42.820Z,2.45
2018-09-20T12:23:13.922Z,2.95
2018-09-20T12:25:44.043Z,2.70
2018-09-20T12:28:14.026Z,3.50
2018-09-20T12:31:29.712Z,2.62
2018-09-20T12:33:59.951Z,4.17
2018-09-20T12:36:30.572Z,3.05
2018-09-20T12:39:00.905Z,4.20
2018-09-20T12:41:31.575Z,3.52
2018-09-20T12:44:01.788Z,2.08
2018-09-20T12:46:32.524Z,5.83
2018-09-20T12:49:02.827Z,2.90
2018-09-20T12:51:33.250Z,3.35
2018-09-20T12:54:03.569Z,2.40
2018-09-20T12:56:33.565Z,3.72
2018-09-20T12:59:04.728Z,2.12
2018-09-20T13:01:34.831Z,3.25
2018-09-20T13:04:06.191Z,3.75
2018-09-20T13:06:37.267Z,2.75
2018-09-20T13:09:11.175Z,3.08
2018-09-20T13:11:43.949Z,4.00
2018-09-20T13:14:15.269Z,3.52
2018-09-20T13:16:46.446Z,2.67
2018-09-20T13:19:17.310Z,5.25
2018-09-20T13:21:48.950Z,3.62
2018-09-20T13:24:19.756Z,3.80
2018-09-20T13:26:50.686Z,4.08
2018-09-20T13:29:23.065Z,4.17
2018-09-20T13:31:56.688Z,3.87
2018-09-20T13:34:30.076Z,3.58
2018-09-20T13:37:02.947Z,2.92
2018-09-20T13:39:34.807Z,2.42
2018-09-20T13:42:05.714Z,4.08
2018-09-20T13:44:38.637Z,4.22
2018-09-20T13:47:10.126Z,4.83
2018-09-20T13:49:41.971Z,4.10
2018-09-20T13:52:13.296Z,4.15
2018-09-20T13:54:44.131Z,5.00
2018-09-20T13:57:14.946Z,4.95
2018-09-20T13:59:46.326Z,4.40
2018-09-20T14:02:16.957Z,5.05
2018-09-20T14:04:47.375Z,4.62
2018-09-20T14:07:18.588Z,4.72
2018-09-20T14:09:49.868Z,4.17
2018-09-20T14:12:21.469Z,4.67
2018-09-20T14:14:55.392Z,2.85
2018-09-20T14:17:28.008Z,3.87
2018-09-20T14:19:59.019Z,5.20
2018-09-20T14:22:30.867Z,4.05
2018-09-20T14:25:02.182Z,4.42
2018-09-20T14:27:32.592Z,3.20
2018-09-20T14:30:02.864Z,6.25
2018-09-20T14:32:33.554Z,4.92
2018-09-20T14:35:03.797Z,3.83
2018-09-20T14:53:28.017Z,4.95
2018-09-20T14:55:58.467Z,4.17
2018-09-20T14:58:33.665Z,3.83
2018-09-20T15:01:06.277Z,4.37
2018-09-20T15:03:36.546Z,4.53
2018-09-20T15:06:09.098Z,4.42
2018-09-20T15:08:40.693Z,4.47
2018-09-20T15:11:11.373Z,3.75
2018-09-20T15:13:44.153Z,4.70
2018-09-20T15:29:49.440Z,3.58
2018-09-20T15:32:31.380Z,2.75
2018-09-20T15:35:03.913Z,4.30
2018-09-20T15:37:34.572Z,5.05
2018-09-20T15:40:10.736Z,4.47
2018-09-20T15:42:41.447Z,4.62
2018-09-20T15:45:12.059Z,5.90
2018-09-20T15:47:42.657Z,4.25
2018-09-20T15:50:14.909Z,3.80
2018-09-20T15:52:45.592Z,4.53
2018-09-20T15:55:15.813Z,4.55
2018-09-20T15:57:48.245Z,4.85
2018-09-20T16:00:20.942Z,4.20
2018-09-20T16:02:53.448Z,5.00
2018-09-20T16:05:24.315Z,5.12
2018-09-20T16:07:57.447Z,4.10
2018-09-20T16:10:30.252Z,4.95
2018-09-20T16:13:00.374Z,5.20
2018-09-20T16:15:31.268Z,5.05
2018-09-20T16:18:02.884Z,5.35
2018-09-20T16:20:35.280Z,4.75
2018-09-20T16:23:08.253Z,4.05
2018-09-20T16:25:39.397Z,3.65
2018-09-20T16:28:23.298Z,5.15
2018-09-20T16:31:13.979Z,4.97
2018-09-20T16:34:16.708Z,4.70
2018-09-20T16:39:00.175Z,4.50
2018-09-20T16:41:40.522Z,4.80
2018-09-20T16:44:10.704Z,4.62
2018-09-20T16:46:40.691Z,4.05
2018-09-20T16:49:15.035Z,5.60
2018-09-20T16:51:45.601Z,5.40
2018-09-20T16:54:17.957Z,5.30
2018-09-20T16:56:50.579Z,8.38
2018-09-20T16:59:21.257Z,6.35
2018-09-20T17:01:53.024Z,6.75
2018-09-20T17:04:23.782Z,6.70
2018-09-20T17:06:55.642Z,7.22
2018-09-20T17:09:26.886Z,6.70
2018-09-20T17:11:57.681Z,6.53
2018-09-20T17:17:18.954Z,6.25
2018-09-20T17:19:49.106Z,5.67
2018-09-20T17:22:19.773Z,6.28
2018-09-20T17:24:49.810Z,6.50
2018-09-20T17:27:19.858Z,6.42
2018-09-20T17:29:49.964Z,7.80
2018-09-20T17:32:20.135Z,8.25
2018-09-20T17:34:50.552Z,7.15
2018-09-20T17:37:22.417Z,6.00
2018-09-20T17:39:53.885Z,6.00
2018-09-20T17:42:25.427Z,7.03
2018-09-20T17:44:55.549Z,6.60
2018-09-20T17:47:25.697Z,8.10
2018-09-20T17:49:55.877Z,7.45
2018-09-20T17:52:26.433Z,7.53
2018-09-20T17:54:58.632Z,7.85
2018-09-20T17:57:30.228Z,12.80
2018-09-20T18:00:00.558Z,10.00
2018-09-20T18:02:30.488Z,10.70
2018-09-20T18:05:00.684Z,8.15
2018-09-20T18:07:32.493Z,7.17
2018-09-20T18:10:03.747Z,7.10
2018-09-20T18:12:33.760Z,6.70
2018-09-20T18:15:04.621Z,8.28
2018-09-20T18:17:34.904Z,7.05
2018-09-20T18:20:05.504Z,6.85
2018-09-20T18:22:35.722Z,8.00
2018-09-20T18:25:08.399Z,8.53
2018-09-20T18:27:38.810Z,7.42
2018-09-20T18:30:09.621Z,8.40
2018-09-20T18:32:42.856Z,7.42
2018-09-20T18:35:13.210Z,7.67
2018-09-20T18:37:46.833Z,7.60
2018-09-20T18:40:17.313Z,7.83
2018-09-20T18:42:47.297Z,7.00
2018-09-20T18:45:17.344Z,7.45
2018-09-20T18:47:47.364Z,6.80
2018-09-20T18:50:18.149Z,7.08
2018-09-20T18:52:49.683Z,7.53
2018-09-20T18:55:20.052Z,6.47
2018-09-20T18:57:50.390Z,7.20
2018-09-20T19:00:20.471Z,7.35
2018-09-20T19:02:50.584Z,6.78
2018-09-20T19:05:22.292Z,7.33
2018-09-20T19:07:52.650Z,7.37
2018-09-20T19:10:22.902Z,7.12
2018-09-20T19:12:53.227Z,7.50
2018-09-20T19:15:23.124Z,6.83
2018-09-20T19:17:53.150Z,7.35
2018-09-20T19:20:23.973Z,8.35
2018-09-20T19:22:54.273Z,8.03
2018-09-20T19:25:25.166Z,8.78
2018-09-20T19:27:55.381Z,8.53
2018-09-20T19:30:25.965Z,9.05
2018-09-20T19:32:56.147Z,9.40
2018-09-20T19:35:27.340Z,9.95
2018-09-20T19:37:57.719Z,9.70
2018-09-20T19:40:28.763Z,9.63
2018-09-20T19:42:59.064Z,9.83
2018-09-20T19:45:31.110Z,9.38
2018-09-20T19:48:01.691Z,9.98
2018-09-20T19:50:33.066Z,10.25
2018-09-20T19:53:03.399Z,10.53
2018-09-20T19:55:34.375Z,10.38
2018-09-20T19:58:05.492Z,9.88
2018-09-20T20:00:36.130Z,10.38
2018-09-20T20:03:07.984Z,9.75
2018-09-20T20:05:39.254Z,10.72
2018-09-20T20:08:11.130Z,10.15
2018-09-20T20:10:42.990Z,10.18
2018-09-20T20:13:13.253Z,10.88
2018-09-20T20:15:43.820Z,11.35
2018-09-20T20:18:13.955Z,10.55
2018-09-20T20:20:44.737Z,12.03
2018-09-20T20:23:15.214Z,11.80
2018-09-20T20:25:45.591Z,12.13
2018-09-20T20:28:16.077Z,11.35
2018-09-20T20:30:46.541Z,11.28
2018-09-20T20:33:16.677Z,10.90
2018-09-20T20:35:47.657Z,10.90
2018-09-20T20:38:18.083Z,11.80
2018-09-20T20:40:48.306Z,11.70
2018-09-20T20:43:20.095Z,11.48
2018-09-20T20:45:50.204Z,11.03
2018-09-20T20:48:20.404Z,12.18
2018-09-20T20:50:50.346Z,12.07
2018-09-20T20:53:20.389Z,11.63
2018-09-20T20:55:50.615Z,12.37
2018-09-20T20:58:21.103Z,12.00
2018-09-20T21:00:51.338Z,11.88
2018-09-20T21:03:21.639Z,11.53
2018-09-20T21:05:52.385Z,11.00
2018-09-20T21:08:24.218Z,11.93
2018-09-20T21:10:55.524Z,10.95
2018-09-20T21:13:27.030Z,10.75
2018-09-20T21:15:57.219Z,10.30
2018-09-20T21:18:27.678Z,10.50
2018-09-20T21:21:00.155Z,9.48
2018-09-20T21:23:33.433Z,9.78
2018-09-20T21:26:04.982Z,8.58
2018-09-20T21:28:36.752Z,8.25
2018-09-20T21:31:07.461Z,7.87
2018-09-20T21:33:38.810Z,7.15
2018-09-20T21:36:08.848Z,7.72
2018-09-20T21:38:40.913Z,7.28
2018-09-20T21:41:11.022Z,7.42
2018-09-20T21:43:41.176Z,7.22
2018-09-20T21:46:13.041Z,7.05
2018-09-20T21:48:44.377Z,6.80
2018-09-20T21:51:15.741Z,6.80
2018-09-20T21:53:46.561Z,6.80
2018-09-20T21:56:16.678Z,6.45
2018-09-20T21:58:46.953Z,6.40
2018-09-20T22:01:17.241Z,6.20
2018-09-20T22:03:47.514Z,6.17
2018-09-20T22:06:17.554Z,6.40
2018-09-20T22:08:47.470Z,6.70
2018-09-20T22:11:17.563Z,6.05
2018-09-20T22:13:48.544Z,5.80
2018-09-20T22:16:19.063Z,5.85
2018-09-20T22:18:50.084Z,5.53
2018-09-20T22:21:20.177Z,5.67
2018-09-20T22:23:50.704Z,5.72
2018-09-20T22:26:20.876Z,5.70
2018-09-20T22:28:52.722Z,6.25
2018-09-20T22:31:23.047Z,5.55
2018-09-20T22:33:53.431Z,5.95
2018-09-20T22:36:23.420Z,5.87
2018-09-20T22:38:53.430Z,6.30
2018-09-20T22:41:23.987Z,6.20
2018-09-20T22:43:54.148Z,5.97
2018-09-20T22:46:24.229Z,6.30
2018-09-20T22:49:42.875Z,6.20
2018-09-20T22:52:12.897Z,6.28
2018-09-20T22:54:44.246Z,7.03
2018-09-20T22:57:14.261Z,6.37
2018-09-20T22:59:46.389Z,6.67
2018-09-20T23:02:16.806Z,6.97
2018-09-20T23:04:46.900Z,6.35
2018-09-20T23:07:17.086Z,7.10
2018-09-20T23:09:47.154Z,6.80
2018-09-20T23:12:17.431Z,6.65
2018-09-20T23:14:47.489Z,7.62
2018-09-20T23:17:17.481Z,6.17
2018-09-20T23:19:49.274Z,6.37
2018-09-20T23:22:19.327Z,6.25
2018-09-20T23:24:49.581Z,6.42
2018-09-20T23:27:19.462Z,7.12
2018-09-20T23:29:49.456Z,6.33
2018-09-20T23:32:19.504Z,7.10
2018-09-20T23:34:49.637Z,6.50
2018-09-20T23:37:21.642Z,6.75
2018-09-20T23:39:51.655Z,6.95
2018-09-20T23:42:22.565Z,6.75
2018-09-20T23:44:52.909Z,6.78
2018-09-20T23:47:25.281Z,7.03
2018-09-20T23:49:55.685Z,6.75
2018-09-20T23:52:27.094Z,6.42
2018-09-20T23:54:57.035Z,6.40
2018-09-20T23:57:27.211Z,5.75
2018-09-20T23:59:59.195Z,6.58
